createdAt,value
2018-07-02T04:09:43.229Z,15
2018-07-02T04:10:08.783Z,14.99
2018-07-02T04:10:34.234Z,15.02
2018-07-02T04:10:59.739Z,15.03
2018-07-02T04:11:25.186Z,14.97
2018-07-02T04:11:50.680Z,15.04
2018-07-02T04:12:16.182Z,14.99
2018-07-02T04:12:41.729Z,14.92
2018-07-02T04:13:07.283Z,15
2018-07-02T04:13:32.704Z,14.99
2018-07-02T04:13:58.180Z,15.06
2018-07-02T04:14:23.677Z,14.94
2018-07-02T04:14:49.173Z,15.02
2018-07-02T04:15:14.677Z,15
2018-07-02T04:15:40.182Z,15.04
2018-07-02T04:16:05.691Z,14.94
2018-07-02T04:16:31.165Z,14.99
2018-07-02T04:16:56.661Z,15.02
2018-07-02T04:17:22.156Z,15.04
2018-07-02T04:17:47.645Z,15.03
2018-07-02T04:18:13.153Z,14.97
2018-07-02T04:18:38.668Z,15.04
2018-07-02T04:19:04.148Z,15.03
2018-07-02T04:19:29.632Z,15.02
2018-07-02T04:19:55.109Z,14.97
2018-07-02T04:20:20.593Z,15.1
2018-07-02T04:20:46.108Z,15.04
2018-07-02T04:21:11.579Z,14.97
2018-07-02T04:21:37.071Z,15.03
2018-07-02T04:22:02.561Z,15.02
2018-07-02T04:22:28.078Z,15.03
2018-07-02T04:22:53.563Z,15.02
2018-07-02T04:23:19.041Z,15.02
2018-07-02T04:23:44.562Z,14.99
2018-07-02T04:24:10.053Z,15.02
2018-07-02T04:24:35.548Z,15.1
2018-07-02T04:25:01.004Z,15.1
2018-07-02T04:25:26.480Z,15.1
2018-07-02T04:25:51.976Z,15.15
2018-07-02T04:26:17.418Z,15.27
2018-07-02T04:26:42.964Z,15.19
2018-07-02T04:27:08.442Z,15.22
2018-07-02T04:27:33.957Z,15.27
2018-07-02T04:27:59.450Z,15.31
2018-07-02T04:28:24.950Z,15.33
2018-07-02T04:28:50.451Z,15.28
2018-07-02T04:29:15.935Z,15.29
2018-07-02T04:29:41.454Z,15.29
2018-07-02T04:30:06.952Z,15.22
2018-07-02T04:30:32.443Z,15.37
2018-07-02T04:30:57.957Z,15.29
2018-07-02T04:31:23.442Z,15.21
2018-07-02T04:31:48.935Z,15.29
2018-07-02T04:32:14.457Z,15.28
2018-07-02T04:32:39.946Z,15.28
2018-07-02T04:33:05.434Z,15.28
2018-07-02T04:33:30.958Z,15.21
2018-07-02T04:33:56.528Z,15.31
2018-07-02T04:34:22.012Z,15.28
2018-07-02T04:34:47.470Z,15.31
2018-07-02T04:35:12.998Z,15.29
2018-07-02T04:35:38.511Z,15.29
2018-07-02T04:36:04.025Z,15.35
2018-07-02T04:36:29.485Z,15.31
2018-07-02T04:36:55.016Z,15.43
2018-07-02T04:37:20.493Z,15.39
2018-07-02T04:37:45.990Z,15.43
2018-07-02T04:38:11.451Z,15.49
2018-07-02T04:38:36.969Z,15.51
2018-07-02T04:39:02.463Z,15.62
2018-07-02T04:39:27.978Z,15.65
2018-07-02T04:39:53.472Z,15.67
2018-07-02T04:40:18.956Z,15.68
2018-07-02T04:40:44.434Z,15.82
2018-07-02T04:41:09.936Z,15.92
2018-07-02T04:41:35.474Z,16
2018-07-02T04:42:00.952Z,16
2018-07-02T04:42:26.441Z,16.08
2018-07-02T04:42:51.911Z,16.2
2018-07-02T04:43:17.432Z,16.17
2018-07-02T04:43:42.923Z,16.26
2018-07-02T04:44:08.409Z,16.33
2018-07-02T04:44:33.912Z,16.46
2018-07-02T04:44:59.358Z,16.42
2018-07-02T04:45:24.862Z,16.54
2018-07-02T04:45:50.346Z,16.58
2018-07-02T04:46:15.810Z,16.66
2018-07-02T04:46:41.343Z,16.71
2018-07-02T04:47:06.833Z,16.71
2018-07-02T04:47:32.334Z,16.75
2018-07-02T04:47:57.787Z,16.96
2018-07-02T04:48:23.330Z,16.99
2018-07-02T04:48:48.777Z,17.04
2018-07-02T04:49:14.272Z,17.16
2018-07-02T04:49:39.736Z,17.16
2018-07-02T04:50:05.239Z,17.26
2018-07-02T04:50:30.723Z,17.33
2018-07-02T04:50:56.216Z,17.34
2018-07-02T04:51:21.711Z,17.51
2018-07-02T04:51:47.206Z,17.46
2018-07-02T04:52:12.722Z,17.48
2018-07-02T04:52:38.159Z,17.56
2018-07-02T04:53:03.669Z,17.72
2018-07-02T04:53:29.138Z,17.71
2018-07-02T04:53:54.638Z,17.78
2018-07-02T04:54:20.125Z,17.71
2018-07-02T04:54:45.662Z,17.76
2018-07-02T04:55:11.149Z,17.79
2018-07-02T04:55:36.639Z,17.86
2018-07-02T04:56:02.106Z,17.85
2018-07-02T04:56:27.582Z,17.94
2018-07-02T04:56:53.057Z,17.87
2018-07-02T04:57:18.533Z,17.92
2018-07-02T04:57:44.032Z,17.89
2018-07-02T04:58:09.530Z,17.9
2018-07-02T04:58:35.001Z,17.9
2018-07-02T04:59:00.453Z,17.98
2018-07-02T04:59:25.915Z,18.04
2018-07-02T04:59:51.414Z,18.03
2018-07-02T05:00:16.897Z,18.08
2018-07-02T05:00:42.894Z,18.16
2018-07-02T05:01:08.529Z,18.2
2018-07-02T05:01:34.179Z,18.22
2018-07-02T05:01:59.635Z,18.19
2018-07-02T05:02:25.122Z,18.37
2018-07-02T05:02:50.607Z,18.34
2018-07-02T05:03:16.116Z,18.35
2018-07-02T05:03:41.625Z,18.44
2018-07-02T05:04:07.123Z,18.45
2018-07-02T05:04:32.635Z,18.34
2018-07-02T05:04:58.134Z,18.41
2018-07-02T05:05:23.634Z,18.5
2018-07-02T05:05:49.157Z,18.53
2018-07-02T05:06:14.650Z,18.58
2018-07-02T05:06:40.177Z,18.5
2018-07-02T05:07:05.673Z,18.59
2018-07-02T05:07:31.184Z,18.6
2018-07-02T05:07:56.685Z,18.58
2018-07-02T05:08:22.162Z,18.55
2018-07-02T05:08:47.690Z,18.56
2018-07-02T05:09:13.212Z,18.55
2018-07-02T05:09:38.700Z,18.59
2018-07-02T05:10:04.211Z,18.6
2018-07-02T05:10:29.755Z,18.53
2018-07-02T05:10:55.314Z,18.49
2018-07-02T05:11:20.810Z,18.49
2018-07-02T05:11:46.284Z,18.5
2018-07-02T05:12:11.780Z,18.53
2018-07-02T05:12:37.279Z,18.52
2018-07-02T05:13:02.752Z,18.45
2018-07-02T05:13:28.246Z,18.38
2018-07-02T05:13:53.739Z,18.47
2018-07-02T05:14:19.232Z,18.38
2018-07-02T05:14:44.726Z,18.45
2018-07-02T05:15:10.265Z,18.45
2018-07-02T05:15:35.684Z,18.59
2018-07-02T05:16:01.175Z,18.58
2018-07-02T05:16:26.702Z,18.56
2018-07-02T05:16:52.192Z,18.53
2018-07-02T05:17:17.712Z,18.58
2018-07-02T05:17:43.147Z,18.5
2018-07-02T05:18:08.663Z,18.52
2018-07-02T05:18:34.430Z,18.55
2018-07-02T05:18:59.699Z,18.59
2018-07-02T05:20:02.808Z,18.52
2018-07-02T05:20:28.302Z,18.5
2018-07-02T05:20:53.816Z,18.56
2018-07-02T05:21:19.348Z,18.58
2018-07-02T05:21:44.849Z,18.59
2018-07-02T05:22:10.359Z,18.58
2018-07-02T05:23:18.611Z,18.63
2018-07-02T05:23:44.095Z,18.47
2018-07-02T05:24:09.597Z,18.65
2018-07-02T05:24:35.077Z,18.53
2018-07-02T05:25:00.560Z,18.53
2018-07-02T05:25:26.046Z,18.58
2018-07-02T05:25:51.539Z,18.52
2018-07-02T05:26:17.028Z,18.58
2018-07-02T05:26:42.528Z,18.58
2018-07-02T05:27:08.002Z,18.55
2018-07-02T05:27:33.508Z,18.6
2018-07-02T05:27:58.957Z,18.5
2018-07-02T05:28:24.473Z,18.56
2018-07-02T05:28:49.971Z,18.53
2018-07-02T05:29:15.460Z,18.53
2018-07-02T05:29:40.942Z,18.58
2018-07-02T05:30:06.441Z,18.5
2018-07-02T05:30:31.927Z,18.56
2018-07-02T05:30:57.454Z,18.5
2018-07-02T05:31:22.997Z,18.59
2018-07-02T05:31:48.417Z,18.59
2018-07-02T05:32:13.888Z,18.59
2018-07-02T05:32:39.401Z,18.55
2018-07-02T05:33:04.894Z,18.6
2018-07-02T05:33:30.396Z,18.56
2018-07-02T05:33:55.884Z,18.71
2018-07-02T05:34:58.990Z,18.77
2018-07-02T05:35:24.499Z,18.83
2018-07-02T05:35:49.981Z,18.81
2018-07-02T05:36:15.477Z,18.84
2018-07-02T05:36:40.973Z,18.84
2018-07-02T05:37:06.445Z,18.95
2018-07-02T05:37:31.949Z,18.95
2018-07-02T05:37:57.426Z,18.96
2018-07-02T05:38:22.920Z,19.04
2018-07-02T05:38:48.420Z,19.04
2018-07-02T05:39:13.911Z,19.04
2018-07-02T05:39:39.393Z,19.02
2018-07-02T05:40:04.893Z,19.14
2018-07-02T05:40:30.395Z,19.12
2018-07-02T05:40:55.915Z,19.16
2018-07-02T05:41:21.455Z,19.11
2018-07-02T05:41:46.953Z,19.15
2018-07-02T05:42:12.440Z,19.15
2018-07-02T05:42:37.951Z,19.11
2018-07-02T05:43:03.473Z,19.26
2018-07-02T05:43:29.013Z,19.33
2018-07-02T05:43:54.520Z,19.29
2018-07-02T05:44:19.999Z,19.29
2018-07-02T05:44:45.599Z,19.31
2018-07-02T05:45:11.103Z,19.22
2018-07-02T05:45:36.591Z,19.29
2018-07-02T05:46:02.109Z,19.29
2018-07-02T05:46:27.611Z,19.31
2018-07-02T05:46:53.139Z,19.33
2018-07-02T05:47:18.677Z,19.37
2018-07-02T05:47:44.158Z,19.34
2018-07-02T05:48:09.683Z,19.37
2018-07-02T05:48:35.207Z,19.4
2018-07-02T05:49:00.680Z,19.51
2018-07-02T05:49:26.192Z,19.59
2018-07-02T05:49:51.714Z,19.59
2018-07-02T05:50:17.203Z,19.67
2018-07-02T05:50:42.672Z,19.63
2018-07-02T05:51:08.166Z,19.69
2018-07-02T05:51:33.684Z,19.52
2018-07-02T05:51:59.186Z,19.62
2018-07-02T05:52:24.675Z,19.63
2018-07-02T05:52:50.141Z,19.59
2018-07-02T05:53:15.649Z,19.7
2018-07-02T05:53:41.124Z,19.73
2018-07-02T05:54:06.654Z,19.88
2018-07-02T05:54:32.162Z,19.91
2018-07-02T05:54:57.722Z,19.91
2018-07-02T05:55:23.145Z,19.91
2018-07-02T05:55:48.639Z,20.04
2018-07-02T05:56:14.131Z,20
2018-07-02T05:56:39.651Z,20.07
2018-07-02T05:57:05.160Z,20.11
2018-07-02T05:57:30.660Z,20.11
2018-07-02T05:57:56.155Z,20.13
2018-07-02T05:58:21.643Z,20.18
2018-07-02T05:58:47.167Z,20.19
2018-07-02T05:59:12.676Z,20.18
2018-07-02T05:59:38.175Z,20.24
2018-07-02T06:00:03.691Z,20.24
2018-07-02T06:00:29.290Z,20.26
2018-07-02T06:00:54.684Z,20.21
2018-07-02T06:01:20.141Z,20.14
2018-07-02T06:01:45.669Z,20.21
2018-07-02T06:02:11.174Z,20.25
2018-07-02T06:02:36.695Z,20.28
2018-07-02T06:03:02.200Z,20.22
2018-07-02T06:03:27.699Z,20.21
2018-07-02T06:03:53.189Z,20.13
2018-07-02T06:04:18.686Z,20.16
2018-07-02T06:04:44.193Z,20.16
2018-07-02T06:05:09.706Z,20.29
2018-07-02T06:05:35.202Z,20.24
2018-07-02T08:38:22.363Z,25.32
2018-07-02T08:38:47.869Z,25.32
2018-07-02T08:39:13.367Z,25.33
2018-07-02T08:39:38.858Z,25.35
2018-07-02T08:40:04.329Z,25.26
2018-07-02T08:40:29.844Z,25.28
2018-07-02T08:40:55.431Z,25.18
2018-07-02T08:41:20.859Z,25.25
2018-07-02T08:41:46.353Z,25.26
2018-07-02T08:42:11.860Z,25.29
2018-07-02T08:42:37.349Z,25.18
2018-07-02T08:43:02.850Z,25.18
2018-07-02T08:43:28.363Z,25.26
2018-07-02T08:43:53.859Z,25.13
2018-07-02T08:44:19.381Z,25.18
2018-07-02T08:44:44.863Z,25.08
2018-07-02T08:45:10.347Z,24.99
2018-07-02T08:45:35.876Z,24.92
2018-07-02T08:46:01.363Z,24.85
2018-07-02T08:46:26.871Z,24.91
2018-07-02T08:46:52.431Z,24.8
2018-07-02T08:47:17.880Z,24.86
2018-07-02T08:47:43.362Z,24.86
2018-07-02T08:48:08.915Z,24.84
2018-07-02T08:48:34.418Z,24.88
2018-07-02T08:48:59.907Z,24.89
2018-07-02T08:49:25.427Z,24.86
2018-07-02T08:49:50.905Z,24.78
2018-07-02T08:50:16.385Z,24.78
2018-07-02T08:50:41.883Z,24.77
2018-07-02T08:51:07.391Z,24.69
2018-07-02T08:51:32.863Z,24.73
2018-07-02T08:51:58.386Z,24.68
2018-07-02T08:52:23.892Z,24.76
2018-07-02T08:52:49.436Z,24.76
2018-07-02T08:53:14.871Z,24.77
2018-07-02T08:53:40.381Z,24.69
2018-07-02T08:54:05.847Z,24.73
2018-07-02T08:54:31.344Z,24.73
2018-07-02T08:54:56.860Z,24.66
2018-07-02T08:55:22.355Z,24.65
2018-07-02T08:55:47.853Z,24.74
2018-07-02T08:56:13.353Z,24.69
2018-07-02T08:56:38.857Z,24.77
2018-07-02T08:57:04.662Z,24.74
2018-07-02T08:57:30.211Z,24.73
2018-07-02T08:57:55.715Z,24.85
2018-07-02T08:58:21.265Z,24.84
2018-07-02T08:58:46.737Z,24.85
2018-07-02T08:59:12.240Z,24.95
2018-07-02T08:59:37.733Z,24.99
2018-07-02T09:00:03.229Z,25.1
2018-07-02T09:00:28.688Z,25.07
2018-07-02T09:00:54.204Z,25.18
2018-07-02T09:01:19.702Z,25.18
2018-07-02T09:01:45.214Z,25.25
2018-07-02T09:02:10.699Z,25.21
2018-07-02T09:02:36.192Z,25.22
2018-07-02T09:03:01.682Z,25.14
2018-07-02T09:03:27.239Z,25.14
2018-07-02T09:03:52.719Z,25.17
2018-07-02T09:04:18.212Z,25.17
2018-07-02T09:04:43.743Z,25.17
2018-07-02T09:05:09.273Z,25.23
2018-07-02T09:05:34.726Z,25.21
2018-07-02T09:06:00.216Z,25.16
2018-07-02T09:06:25.720Z,25.21
2018-07-02T09:06:51.290Z,25.11
2018-07-02T09:07:16.762Z,25.21
2018-07-02T09:07:42.281Z,25.13
2018-07-02T09:08:07.808Z,25.1
2018-07-02T09:08:33.361Z,25.08
2018-07-02T09:08:59.073Z,25.04
2018-07-02T09:09:24.763Z,25.08
2018-07-02T09:09:50.278Z,25.07
2018-07-02T09:10:15.758Z,25.06
2018-07-02T09:10:41.256Z,25.03
2018-07-02T09:11:06.755Z,25.07
2018-07-02T09:11:32.214Z,25.06
2018-07-02T09:11:57.758Z,25.03
2018-07-02T09:12:23.260Z,24.96
2018-07-02T09:12:48.754Z,25.1
2018-07-02T09:13:14.216Z,25.03
2018-07-02T09:13:39.719Z,25.17
2018-07-02T09:14:05.239Z,25.29
2018-07-02T09:14:30.729Z,25.23
2018-07-02T09:14:56.298Z,25.25
2018-07-02T09:15:21.786Z,25.17
2018-07-02T09:15:47.246Z,25.26
2018-07-02T09:16:12.779Z,25.17
2018-07-02T09:16:38.307Z,25.23
2018-07-02T09:17:03.799Z,25.23
2018-07-02T09:17:29.269Z,25.33
2018-07-02T09:17:54.744Z,25.21
2018-07-02T09:18:20.261Z,25.26
2018-07-02T09:18:45.760Z,25.26
2018-07-02T09:19:39.386Z,25.38
2018-07-02T09:20:04.866Z,25.36
2018-07-02T09:20:30.610Z,25.5
2018-07-02T09:20:55.858Z,25.5
2018-07-02T09:21:21.358Z,25.54
2018-07-02T09:21:46.848Z,25.47
2018-07-02T09:22:12.339Z,25.47
2018-07-02T09:22:37.822Z,25.5
2018-07-02T09:23:03.356Z,25.48
2018-07-02T09:23:28.864Z,25.35
2018-07-02T09:23:54.599Z,25.4
2018-07-02T09:24:20.148Z,25.38
2018-07-02T09:24:45.711Z,25.36
2018-07-02T09:25:11.268Z,25.5
2018-07-02T09:25:36.741Z,25.54
2018-07-02T09:26:02.275Z,25.55
2018-07-02T09:26:27.777Z,25.53
2018-07-02T09:26:53.286Z,25.63
2018-07-02T09:27:18.900Z,25.63
2018-07-02T09:27:44.488Z,25.63
2018-07-02T09:28:09.868Z,25.66
2018-07-02T09:28:35.467Z,25.73
2018-07-02T09:29:00.923Z,25.78
2018-07-02T09:29:26.418Z,25.77
2018-07-02T09:29:51.902Z,25.87
2018-07-02T09:30:17.562Z,25.98
2018-07-02T09:30:43.032Z,25.95
2018-07-02T09:31:30.879Z,25.93
2018-07-02T09:31:56.392Z,25.93
2018-07-02T09:32:22.012Z,25.98
2018-07-02T09:32:47.362Z,25.96
2018-07-02T09:33:12.850Z,25.95
2018-07-02T09:33:38.374Z,25.95
2018-07-02T09:34:03.903Z,25.9
2018-07-02T09:34:29.404Z,25.81
2018-07-02T09:34:54.932Z,25.8
2018-07-02T09:35:20.438Z,25.54
2018-07-02T09:35:45.943Z,25.63
2018-07-02T09:36:11.414Z,25.47
2018-07-02T09:36:36.880Z,25.5
2018-07-02T09:37:02.419Z,25.47
2018-07-02T09:37:27.904Z,25.4
2018-07-02T09:37:53.432Z,25.36
2018-07-02T09:38:18.882Z,25.35
2018-07-02T09:38:44.395Z,25.35
2018-07-02T09:39:09.960Z,25.29
2018-07-02T09:39:35.390Z,25.33
2018-07-02T09:40:00.860Z,25.4
2018-07-02T09:40:26.323Z,25.47
2018-07-02T09:40:51.794Z,25.55
2018-07-02T09:41:17.263Z,25.48
2018-07-02T09:41:42.739Z,25.58
2018-07-02T09:42:08.234Z,25.65
2018-07-02T09:42:33.753Z,25.66
2018-07-02T09:42:59.215Z,25.68
2018-07-02T09:43:24.755Z,25.69
2018-07-02T09:43:50.259Z,25.68
2018-07-02T09:44:15.879Z,25.8
2018-07-02T09:44:41.354Z,25.66
2018-07-02T09:45:06.845Z,25.7
2018-07-02T09:45:32.362Z,25.63
2018-07-02T09:45:57.887Z,25.65
2018-07-02T09:46:23.398Z,25.62
2018-07-02T09:46:48.954Z,25.75
2018-07-02T09:47:14.512Z,25.84
2018-07-02T09:47:40.016Z,25.77
2018-07-02T09:48:05.574Z,25.83
2018-07-02T09:48:31.149Z,25.83
2018-07-02T09:48:56.667Z,25.72
2018-07-02T09:49:22.204Z,25.84
2018-07-02T09:49:47.825Z,25.81
2018-07-02T09:50:13.441Z,25.91
2018-07-02T09:50:38.937Z,25.9
2018-07-02T09:51:04.484Z,25.88
2018-07-02T09:51:29.992Z,25.77
2018-07-02T09:51:55.562Z,25.8
2018-07-02T09:52:21.067Z,25.8
2018-07-02T09:52:46.568Z,25.83
2018-07-02T09:53:12.062Z,25.8
2018-07-02T09:53:37.595Z,25.83
2018-07-02T09:54:03.095Z,25.9
2018-07-02T09:54:28.619Z,25.96
2018-07-02T09:54:54.104Z,25.91
2018-07-02T09:55:19.632Z,25.93
2018-07-02T09:55:45.136Z,25.9
2018-07-02T09:56:10.609Z,25.83
2018-07-02T09:56:36.145Z,25.9
2018-07-02T09:57:01.705Z,25.84
2018-07-02T09:57:27.253Z,25.9
2018-07-02T09:57:52.782Z,25.84
2018-07-02T09:58:18.279Z,25.85
2018-07-02T09:58:43.812Z,25.8
2018-07-02T09:59:09.345Z,25.81
2018-07-02T09:59:34.848Z,25.77
2018-07-02T10:00:00.389Z,25.7
2018-07-02T10:00:25.897Z,25.62
2018-07-02T10:00:51.425Z,25.55
2018-07-02T10:01:16.975Z,25.5
2018-07-02T10:01:42.382Z,25.55
2018-07-02T10:02:07.895Z,25.53
2018-07-02T10:02:33.392Z,25.22
2018-07-02T10:02:58.922Z,25.31
2018-07-02T10:03:24.406Z,25.26
2018-07-02T10:03:49.919Z,25.25
2018-07-02T10:04:15.456Z,25.31
2018-07-02T10:04:40.964Z,25.22
2018-07-02T10:05:06.498Z,25.36
2018-07-02T10:05:31.995Z,25.35
2018-07-02T10:05:57.482Z,25.36
2018-07-02T10:06:23.083Z,25.35
2018-07-02T10:06:48.542Z,25.38
2018-07-02T10:07:14.064Z,25.43
2018-07-02T10:07:39.560Z,25.33
2018-07-02T10:08:05.092Z,25.41
2018-07-02T10:08:30.591Z,25.47
2018-07-02T10:08:56.081Z,25.48
2018-07-02T10:09:21.583Z,25.47
2018-07-02T10:09:47.083Z,25.46
2018-07-02T10:10:12.676Z,25.53
2018-07-02T10:10:38.122Z,25.6
2018-07-02T10:11:03.631Z,25.63
2018-07-02T10:11:29.143Z,25.62
2018-07-02T10:11:54.668Z,25.62
2018-07-02T10:12:20.167Z,25.66
2018-07-02T10:12:45.674Z,25.73
2018-07-02T10:13:11.136Z,25.68
2018-07-02T10:13:36.677Z,25.75
2018-07-02T10:14:02.193Z,25.75
2018-07-02T10:14:27.697Z,25.84
2018-07-02T10:14:53.239Z,25.78
2018-07-02T10:15:51.316Z,25.69
2018-07-02T10:16:16.807Z,25.63
2018-07-02T10:16:42.313Z,25.72
2018-07-02T10:17:07.805Z,25.63
2018-07-02T10:17:33.309Z,25.62
2018-07-02T10:17:58.840Z,25.6
2018-07-02T10:18:24.376Z,25.65
2018-07-02T10:18:49.870Z,25.54
2018-07-02T10:19:15.359Z,25.55
2018-07-02T10:20:08.299Z,25.6
2018-07-02T10:20:33.814Z,25.53
2018-07-02T10:20:59.297Z,25.47
2018-07-02T10:21:24.796Z,25.53
2018-07-02T10:21:50.310Z,25.43
2018-07-02T10:22:15.837Z,25.33
2018-07-02T10:22:41.333Z,25.44
2018-07-02T10:23:06.884Z,25.41
2018-07-02T10:23:37.332Z,25.4
2018-07-02T10:23:58.063Z,25.48
2018-07-02T10:24:23.536Z,25.36
2018-07-02T10:24:49.115Z,25.41
2018-07-02T10:25:14.538Z,25.4
2018-07-02T10:25:40.055Z,25.36
2018-07-02T10:26:05.576Z,25.35
2018-07-02T10:26:31.164Z,25.36
2018-07-02T10:26:56.652Z,25.36
2018-07-02T10:27:22.174Z,25.35
2018-07-02T10:27:47.741Z,25.36
2018-07-02T10:28:13.282Z,25.38
2018-07-02T10:28:38.777Z,25.33
2018-07-02T10:29:04.261Z,25.35
2018-07-02T10:29:29.886Z,25.43
2018-07-02T10:29:55.363Z,25.53
2018-07-02T10:30:20.903Z,25.33
2018-07-02T10:30:46.430Z,25.43
2018-07-02T10:31:12.011Z,25.47
2018-07-02T10:31:37.477Z,25.47
2018-07-02T10:32:03.030Z,25.47
2018-07-02T10:32:28.581Z,25.51
2018-07-02T10:32:54.082Z,25.48
2018-07-02T10:33:19.558Z,25.6
2018-07-02T10:34:23.695Z,25.63
2018-07-02T10:34:49.235Z,25.63
2018-07-02T10:35:14.697Z,25.68
2018-07-02T10:35:40.191Z,25.7
2018-07-02T10:36:05.649Z,25.84
2018-07-02T10:36:31.191Z,25.8
2018-07-02T10:36:56.746Z,25.73
2018-07-02T10:37:22.286Z,25.6
2018-07-02T10:37:47.808Z,25.59
2018-07-02T10:38:13.299Z,25.47
2018-07-02T10:38:38.800Z,25.51
2018-07-02T10:39:04.287Z,25.48
2018-07-02T10:39:29.802Z,25.38
2018-07-02T10:39:55.351Z,25.36
2018-07-02T10:40:20.877Z,25.28
2018-07-02T10:40:46.375Z,25.23
2018-07-02T10:41:11.931Z,25.28
2018-07-02T10:41:37.385Z,25.25
2018-07-02T10:42:02.964Z,25.32
2018-07-02T10:42:28.529Z,25.21
2018-07-02T10:42:54.018Z,25.23
2018-07-02T10:43:52.081Z,25.38
2018-07-02T10:44:17.573Z,25.33
2018-07-02T10:44:43.153Z,25.36
2018-07-02T10:45:08.647Z,25.35
2018-07-02T10:45:34.149Z,25.36
2018-07-02T10:45:59.639Z,25.29
2018-07-02T10:46:25.185Z,25.38
2018-07-02T10:46:50.692Z,25.26
2018-07-02T10:47:16.226Z,25.23
2018-07-02T10:47:41.822Z,25.23
2018-07-02T10:48:07.290Z,25.26
2018-07-02T10:48:32.774Z,25.28
2018-07-02T10:48:58.308Z,25.26
2018-07-02T10:50:06.595Z,25.35
2018-07-02T10:50:32.095Z,25.41
2018-07-02T10:50:57.642Z,25.36
2018-07-02T10:51:23.058Z,25.46
2018-07-02T10:51:48.546Z,25.41
2018-07-02T10:52:14.109Z,25.5
2018-07-02T10:52:39.615Z,25.5
2018-07-02T10:53:05.136Z,25.5
2018-07-02T10:53:30.657Z,25.5
2018-07-02T10:53:56.184Z,25.44
2018-07-02T10:54:21.859Z,25.55
2018-07-02T10:54:47.422Z,25.59
2018-07-02T10:55:12.946Z,25.59
2018-07-02T10:55:38.556Z,25.62
2018-07-02T10:56:04.079Z,25.62
2018-07-02T10:56:29.584Z,25.63
2018-07-02T10:56:55.106Z,25.7
2018-07-02T10:57:20.713Z,25.72
2018-07-02T10:57:46.256Z,25.63
2018-07-02T10:58:11.815Z,25.68
2018-07-02T10:58:37.423Z,25.63
2018-07-02T10:59:03.102Z,25.54
2018-07-02T10:59:28.708Z,25.53
2018-07-02T10:59:54.225Z,25.5
2018-07-02T11:00:19.816Z,25.55
2018-07-02T11:01:08.139Z,25.53
2018-07-02T11:01:33.621Z,25.53
2018-07-02T11:01:59.149Z,25.69
2018-07-02T11:02:24.794Z,25.68
2018-07-02T11:02:50.447Z,25.73
2018-07-02T11:03:15.987Z,25.68
2018-07-02T11:03:41.566Z,25.68
2018-07-02T11:04:07.070Z,25.63
2018-07-02T11:04:32.722Z,25.66
2018-07-02T11:04:58.207Z,25.59
2018-07-02T11:05:23.823Z,25.5
2018-07-02T11:05:49.367Z,25.47
2018-07-02T11:06:15.051Z,25.51
2018-07-02T11:06:40.646Z,25.47
2018-07-02T11:07:06.154Z,25.47
2018-07-02T11:07:31.715Z,25.47
2018-07-02T11:07:57.266Z,25.5
2018-07-02T11:08:22.757Z,25.59
2018-07-02T11:08:48.415Z,25.48
2018-07-02T11:09:13.963Z,25.58
2018-07-02T11:09:39.640Z,25.62
2018-07-02T11:10:05.109Z,25.66
2018-07-02T11:10:30.711Z,25.7
2018-07-02T11:10:56.222Z,25.73
2018-07-02T11:11:21.895Z,25.83
2018-07-02T11:11:47.418Z,25.8
2018-07-02T11:12:12.945Z,25.75
2018-07-02T11:12:38.535Z,25.73
2018-07-02T11:13:04.114Z,25.77
2018-07-02T11:13:29.715Z,25.73
2018-07-02T11:13:55.203Z,25.81
2018-07-02T11:14:20.728Z,25.75
2018-07-02T11:14:46.326Z,25.78
2018-07-02T11:15:11.914Z,25.75
2018-07-02T11:15:37.376Z,25.65
2018-07-02T11:16:02.892Z,25.62
2018-07-02T11:16:28.422Z,25.72
2018-07-02T11:16:53.939Z,25.65
2018-07-02T11:17:19.550Z,25.63
2018-07-02T11:17:45.099Z,25.63
2018-07-02T11:18:10.671Z,25.6
2018-07-02T11:18:36.183Z,25.7
2018-07-02T11:19:01.789Z,25.63
2018-07-02T11:19:27.316Z,25.69
2018-07-02T11:19:52.902Z,25.63
2018-07-02T11:20:18.429Z,25.78
2018-07-02T11:20:43.911Z,25.72
2018-07-02T11:21:09.471Z,25.77
2018-07-02T11:21:35.000Z,25.87
2018-07-02T11:22:00.592Z,25.9
2018-07-02T11:22:26.061Z,25.98
2018-07-02T11:22:51.566Z,25.9
2018-07-02T11:23:17.081Z,26.02
2018-07-02T11:23:42.661Z,26
2018-07-02T11:24:08.132Z,26.02
2018-07-02T11:24:33.684Z,26.1
2018-07-02T11:24:59.192Z,26.05
2018-07-02T11:25:24.695Z,26.02
2018-07-02T11:25:50.361Z,26.06
2018-07-02T11:26:15.877Z,26.06
2018-07-02T11:26:41.401Z,25.96
2018-07-02T11:27:06.911Z,25.99
2018-07-02T11:27:32.508Z,25.96
2018-07-02T11:27:58.007Z,25.96
2018-07-02T11:28:23.519Z,25.98
2018-07-02T11:28:49.024Z,25.98
2018-07-02T11:29:14.605Z,26.05
2018-07-02T11:29:40.104Z,25.99
2018-07-02T11:30:05.652Z,26.05
2018-07-02T11:30:31.164Z,26.05
2018-07-02T11:30:56.712Z,26.06
2018-07-02T11:31:22.267Z,26.03
2018-07-02T11:31:47.755Z,26.1
2018-07-02T11:32:13.368Z,26.07
2018-07-02T11:32:39.678Z,26.1
2018-07-02T11:33:05.268Z,26.21
2018-07-02T11:33:30.797Z,26.15
2018-07-02T11:33:56.403Z,26.28
2018-07-02T11:34:21.950Z,26.25
2018-07-02T11:34:47.522Z,26.25
2018-07-02T11:35:13.070Z,26.22
2018-07-02T11:35:38.696Z,26.19
2018-07-02T11:36:04.259Z,26.19
2018-07-02T11:36:29.851Z,26.1
2018-07-02T11:36:55.442Z,26.26
2018-07-02T11:37:20.977Z,26.1
2018-07-02T11:37:46.503Z,26.05
2018-07-02T11:38:12.034Z,26.02
2018-07-02T11:38:37.558Z,25.93
2018-07-02T11:39:03.148Z,26
2018-07-02T11:39:28.639Z,25.91
2018-07-02T11:39:54.301Z,25.91
2018-07-02T11:40:57.981Z,25.96
2018-07-02T11:41:23.511Z,26
2018-07-02T11:41:49.029Z,26.05
2018-07-02T11:42:14.559Z,25.98
2018-07-02T11:42:40.089Z,26
2018-07-02T11:43:05.666Z,26.13
2018-07-02T11:43:31.235Z,26.09
2018-07-02T11:43:56.852Z,26.07
2018-07-02T11:44:22.448Z,26.15
2018-07-02T11:44:47.983Z,26.13
2018-07-02T11:45:13.566Z,26.25
2018-07-02T11:45:39.133Z,26.23
2018-07-02T11:46:04.637Z,26.26
2018-07-02T11:46:30.125Z,26.29
2018-07-02T11:46:55.631Z,26.22
2018-07-02T11:47:21.079Z,26.26
2018-07-02T11:47:46.618Z,26.21
2018-07-02T11:48:12.168Z,26.23
2018-07-02T11:48:37.739Z,26.34
2018-07-02T11:49:40.935Z,26.22
2018-07-02T11:50:06.387Z,26.09
2018-07-02T11:50:31.881Z,26.15
2018-07-02T11:50:57.401Z,26.19
2018-07-02T11:51:22.880Z,26.19
2018-07-02T11:51:48.395Z,26.05
2018-07-02T11:52:13.935Z,26.06
2018-07-02T11:52:39.435Z,26.07
2018-07-02T11:53:04.974Z,26.02
2018-07-02T11:53:30.496Z,26
2018-07-02T11:53:56.031Z,25.98
2018-07-02T11:54:21.557Z,25.96
2018-07-02T11:54:47.082Z,25.91
2018-07-02T11:55:12.589Z,26
2018-07-02T11:55:38.070Z,25.9
2018-07-02T11:56:03.521Z,25.93
2018-07-02T11:56:29.037Z,25.84
2018-07-02T11:56:54.561Z,25.93
2018-07-02T11:57:20.131Z,25.87
2018-07-02T11:57:45.653Z,25.85
2018-07-02T11:58:11.122Z,25.85
2018-07-02T11:58:36.604Z,25.77
2018-07-02T11:59:02.191Z,25.8
2018-07-02T11:59:27.701Z,25.83
2018-07-02T11:59:53.260Z,25.83
2018-07-02T12:00:18.775Z,25.78
2018-07-02T12:00:44.309Z,25.81
2018-07-02T12:01:09.887Z,25.8
2018-07-02T12:01:35.464Z,25.85
2018-07-02T12:02:01.083Z,25.77
2018-07-02T12:02:26.601Z,25.72
2018-07-02T12:02:52.222Z,25.81
2018-07-02T12:03:17.747Z,25.84
2018-07-02T12:03:43.334Z,25.75
2018-07-02T12:04:08.970Z,25.85
2018-07-02T12:04:34.426Z,25.85
2018-07-02T12:04:59.968Z,25.9
2018-07-02T12:05:25.559Z,25.81
2018-07-02T12:05:51.069Z,25.85
2018-07-02T12:06:16.688Z,25.88
2018-07-02T12:06:42.232Z,25.85
2018-07-02T12:07:07.733Z,25.83
2018-07-02T12:07:33.290Z,25.9
2018-07-02T12:07:58.827Z,25.95
2018-07-02T12:08:24.340Z,25.96
2018-07-02T12:08:49.804Z,26.02
2018-07-02T12:09:44.028Z,26
2018-07-02T12:10:09.551Z,25.93
2018-07-02T12:10:35.065Z,26
2018-07-02T12:11:00.608Z,25.9
2018-07-02T12:11:26.122Z,25.87
2018-07-02T12:11:51.688Z,25.81
2018-07-02T12:12:17.258Z,25.73
2018-07-02T12:12:42.791Z,25.84
2018-07-02T12:13:08.306Z,25.68
2018-07-02T12:13:33.879Z,25.68
2018-07-02T12:13:59.429Z,25.63
2018-07-02T12:14:24.900Z,25.55
2018-07-02T12:14:50.419Z,25.5
2018-07-02T12:15:15.989Z,25.48
2018-07-02T12:15:41.496Z,25.48
2018-07-02T12:16:06.970Z,25.47
2018-07-02T12:16:32.487Z,25.51
2018-07-02T12:16:57.943Z,25.5
2018-07-02T12:17:24.377Z,25.47
2018-07-02T12:17:49.922Z,25.35
2018-07-02T12:18:15.389Z,25.4
2018-07-02T12:18:40.897Z,25.35
2018-07-02T12:19:08.247Z,25.38
2018-07-02T12:19:33.725Z,25.35
2018-07-02T12:19:59.248Z,25.36